createdAt,value
2018-09-30T00:00:14.770Z,98968.71
2018-09-30T00:02:44.167Z,98964.44
2018-09-30T00:05:13.891Z,98966.84
2018-09-30T00:07:43.934Z,98964.19
2018-09-30T00:12:00.769Z,98942.73
2018-09-30T00:14:30.651Z,98961.21
2018-09-30T00:17:00.835Z,98963.63
2018-09-30T00:19:29.856Z,98963.36
2018-09-30T00:21:58.858Z,98965.52
2018-09-30T00:27:22.423Z,98964.19
2018-09-30T00:29:50.863Z,98960.40
2018-09-30T00:32:20.173Z,98962.28
2018-09-30T00:34:48.812Z,98955.88
2018-09-30T00:37:17.986Z,98950.80
2018-09-30T00:39:47.775Z,98940.70
2018-09-30T00:42:17.183Z,98945.72
2018-09-30T00:44:45.905Z,98937.47
2018-09-30T00:47:18.881Z,98935.31
2018-09-30T00:49:47.866Z,98930.28
2018-09-30T00:52:17.461Z,98932.65
2018-09-30T00:57:21.936Z,98926.28
2018-09-30T00:59:50.845Z,98927.88
2018-09-30T01:02:20.747Z,98933.47
2018-09-30T01:04:50.646Z,98925.20
2018-09-30T01:07:21.639Z,98923.33
2018-09-30T01:11:06.815Z,98926.55
2018-09-30T01:13:35.972Z,98926.28
2018-09-30T01:16:05.686Z,98926.28
2018-09-30T01:18:34.912Z,98923.61
2018-09-30T01:21:04.690Z,98923.61
2018-09-30T01:24:46.759Z,98921.98
2018-09-30T01:29:58.770Z,98908.64
2018-09-30T01:32:26.586Z,98915.61
2018-09-30T01:34:55.917Z,98916.14
2018-09-30T01:37:26.767Z,98915.61
2018-09-30T01:40:01.823Z,98905.98
2018-09-30T01:42:31.799Z,98909.21
2018-09-30T01:45:01.594Z,98910.28
2018-09-30T01:47:30.905Z,98910.80
2018-09-30T01:50:00.620Z,98910.80
2018-09-30T01:52:47.043Z,98909.98
2018-09-30T01:55:16.770Z,98913.21
2018-09-30T01:57:46.621Z,98899.62
2018-09-30T02:00:15.846Z,98893.42
2018-09-30T02:02:45.853Z,98889.73
2018-09-30T02:05:15.961Z,98889.74
2018-09-30T02:07:46.034Z,98892.41
2018-09-30T02:10:15.821Z,98889.48
2018-09-30T02:12:45.574Z,98879.88
2018-09-30T02:15:14.855Z,98876.13
2018-09-30T02:17:44.532Z,98868.91
2018-09-30T02:20:13.856Z,98873.48
2018-09-30T02:22:43.122Z,98873.47
2018-09-30T02:25:12.623Z,98866.81
2018-09-30T02:27:41.845Z,98869.22
2018-09-30T02:32:11.921Z,98874.55
2018-09-30T02:34:41.067Z,98850.52
2018-09-30T02:37:10.609Z,98862.81
2018-09-30T02:39:38.916Z,98859.89
2018-09-30T02:42:08.746Z,98856.41
2018-09-30T02:44:37.702Z,98851.88
2018-09-30T02:48:53.967Z,98850.52
2018-09-30T02:51:23.249Z,98839.07
2018-09-30T02:54:39.490Z,98839.89
2018-09-30T02:57:08.819Z,98842.30
2018-09-30T02:59:37.885Z,98840.41
2018-09-30T03:02:07.314Z,98838.30
2018-09-30T03:04:36.602Z,98835.08
2018-09-30T03:07:10.947Z,98836.41
2018-09-30T03:09:42.746Z,98835.34
2018-09-30T03:12:11.065Z,98834.30
2018-09-30T03:14:40.741Z,98817.44
2018-09-30T03:17:09.847Z,98836.41
2018-09-30T03:19:39.609Z,98831.08
2018-09-30T03:23:14.805Z,98829.48
2018-09-30T03:25:43.965Z,98815.33
2018-09-30T03:28:13.449Z,98824.41
2018-09-30T03:30:41.832Z,98825.48
2018-09-30T03:33:10.954Z,98827.85
2018-09-30T03:35:40.033Z,98823.59
2018-09-30T03:38:09.191Z,98818.52
2018-09-30T03:40:38.704Z,98821.19
2018-09-30T03:43:07.822Z,98822.81
2018-09-30T03:45:36.962Z,98821.48
2018-09-30T03:50:08.726Z,98818.81
2018-09-30T03:52:37.848Z,98815.59
2018-09-30T03:55:07.606Z,98810.82
2018-09-30T03:57:35.833Z,98811.08
2018-09-30T04:00:05.058Z,98805.20
2018-09-30T04:02:34.726Z,98800.67
2018-09-30T04:05:03.831Z,98804.67
2018-09-30T04:07:33.608Z,98803.05
2018-09-30T04:10:01.868Z,98809.20
2018-09-30T04:12:31.602Z,98794.22
2018-09-30T04:14:59.845Z,98785.41
2018-09-30T04:20:13.790Z,98794.79
2018-09-30T04:22:42.986Z,98791.61
2018-09-30T04:25:12.766Z,98778.83
2018-09-30T04:28:15.770Z,98776.42
2018-09-30T04:30:44.937Z,98779.34
2018-09-30T04:33:14.781Z,98772.42
2018-09-30T04:35:43.845Z,98772.94
2018-09-30T04:38:15.745Z,98778.02
2018-09-30T04:40:44.890Z,98772.68
2018-09-30T04:43:14.184Z,98767.34
2018-09-30T04:45:43.810Z,98767.05
2018-09-30T04:48:23.814Z,98759.05
2018-09-30T04:50:52.939Z,98769.20
2018-09-30T04:53:22.049Z,98767.88
2018-09-30T04:55:51.582Z,98762.28
2018-09-30T04:58:20.739Z,98763.61
2018-09-30T05:00:50.059Z,98771.61
2018-09-30T05:03:19.610Z,98769.50
2018-09-30T05:05:47.875Z,98766.53
2018-09-30T05:08:17.106Z,98774.53
2018-09-30T05:10:46.649Z,98765.47
2018-09-30T05:13:15.757Z,98762.83
2018-09-30T05:15:44.961Z,98754.80
2018-09-30T05:18:14.518Z,98752.69
2018-09-30T05:20:44.797Z,98745.77
2018-09-30T05:23:14.736Z,98745.25
2018-09-30T05:25:43.922Z,98754.02
2018-09-30T05:28:13.562Z,98749.77
2018-09-30T05:30:41.879Z,98746.02
2018-09-30T05:33:11.726Z,98745.25
2018-09-30T05:35:40.951Z,98745.51
2018-09-30T05:38:10.613Z,98744.43
2018-09-30T05:40:38.884Z,98741.77
2018-09-30T05:43:07.897Z,98742.03
2018-09-30T05:45:39.005Z,98740.17
2018-09-30T05:48:08.608Z,98742.31
2018-09-30T05:50:37.633Z,98743.10
2018-09-30T05:53:06.785Z,98743.66
2018-09-30T05:55:35.947Z,98746.58
2018-09-30T05:58:04.915Z,98747.66
2018-09-30T06:00:33.925Z,98746.84
2018-09-30T06:03:03.054Z,98748.44
2018-09-30T06:05:32.609Z,98748.20
2018-09-30T06:08:01.755Z,98743.39
2018-09-30T06:11:00.773Z,98737.80
2018-09-30T06:13:30.665Z,98729.77
2018-09-30T06:15:59.808Z,98746.58
2018-09-30T06:18:28.845Z,98746.31
2018-09-30T06:20:57.929Z,98738.06
2018-09-30T06:24:55.609Z,98747.42
2018-09-30T06:27:24.771Z,98745.54
2018-09-30T06:29:54.049Z,98743.94
2018-09-30T06:32:23.853Z,98753.80
2018-09-30T06:37:23.663Z,98739.69
2018-09-30T06:39:52.859Z,98751.95
2018-09-30T06:42:21.910Z,98748.78
2018-09-30T06:44:51.614Z,98753.86
2018-09-30T06:49:45.677Z,98748.81
2018-09-30T06:52:13.628Z,98758.70
2018-09-30T06:54:41.741Z,98757.36
2018-09-30T06:57:09.829Z,98746.17
2018-09-30T06:59:38.267Z,98753.38
2018-09-30T07:02:06.130Z,98741.66
2018-09-30T07:04:34.575Z,98748.33
2018-09-30T07:07:04.009Z,98737.36
2018-09-30T07:09:32.589Z,98731.52
2018-09-30T07:12:00.630Z,98740.05
2018-09-30T07:14:29.781Z,98733.67
2018-09-30T07:16:57.863Z,98737.67
2018-09-30T07:19:26.394Z,98741.38
2018-09-30T07:21:54.617Z,98717.34
2018-09-30T07:24:22.763Z,98736.88
2018-09-30T07:26:50.162Z,98743.02
2018-09-30T07:29:20.438Z,98746.47
2018-09-30T07:31:48.496Z,98739.80
2018-09-30T07:34:16.874Z,98745.42
2018-09-30T07:36:45.444Z,98737.41
2018-09-30T07:39:15.697Z,98731.80
2018-09-30T07:41:45.141Z,98729.95
2018-09-30T07:44:13.412Z,98734.20
2018-09-30T07:50:36.706Z,98726.75
2018-09-30T07:53:04.997Z,98729.15
2018-09-30T07:55:34.086Z,98731.55
2018-09-30T07:58:02.588Z,98724.33
2018-09-30T08:00:30.597Z,98729.13
2018-09-30T08:02:59.512Z,98718.98
2018-09-30T08:05:27.605Z,98717.12
2018-09-30T08:07:55.535Z,98719.27
2018-09-30T08:10:23.764Z,98720.62
2018-09-30T08:16:38.452Z,98716.33
2018-09-30T08:19:07.905Z,98710.42
2018-09-30T08:21:38.204Z,98710.69
2018-09-30T08:24:08.101Z,98709.77
2018-09-30T08:26:38.702Z,98709.80
2018-09-30T08:29:08.845Z,98710.00
2018-09-30T08:31:37.809Z,98707.82
2018-09-30T08:34:07.865Z,98706.27
2018-09-30T08:36:37.925Z,98700.05
2018-09-30T08:39:08.938Z,98697.84
2018-09-30T08:41:38.941Z,98690.55
2018-09-30T08:44:09.331Z,98704.69
2018-09-30T08:46:40.039Z,98698.58
2018-09-30T08:49:09.995Z,98698.63
2018-09-30T08:51:39.886Z,98693.85
2018-09-30T08:54:09.662Z,98699.09
2018-09-30T08:56:42.167Z,98690.97
2018-09-30T08:59:37.838Z,98700.94
2018-09-30T09:02:08.925Z,98697.23
2018-09-30T09:04:37.989Z,98695.11
2018-09-30T09:07:08.320Z,98693.56
2018-09-30T09:09:37.994Z,98695.47
2018-09-30T09:14:17.846Z,98702.69
2018-09-30T09:16:49.030Z,98696.30
2018-09-30T09:19:20.484Z,98688.03
2018-09-30T09:21:49.975Z,98684.30
2018-09-30T09:24:20.001Z,98681.63
2018-09-30T09:26:49.974Z,98685.35
2018-09-30T09:29:19.926Z,98678.41
2018-09-30T09:31:49.244Z,98609.02
2018-09-30T09:34:18.962Z,98673.90
2018-09-30T09:36:48.977Z,98668.53
2018-09-30T09:39:20.730Z,98661.86
2018-09-30T09:41:51.007Z,98643.72
2018-09-30T09:44:21.367Z,98661.59
2018-09-30T09:46:54.705Z,98658.40
2018-09-30T09:49:24.010Z,98654.35
2018-09-30T09:54:15.926Z,98610.62
2018-09-30T09:57:12.737Z,98623.97
2018-09-30T09:59:42.193Z,98630.34
2018-09-30T10:02:12.869Z,98627.95
2018-09-30T10:04:42.804Z,98625.55
2018-09-30T10:07:13.774Z,98622.33
2018-09-30T10:09:43.963Z,98616.99
2018-09-30T10:12:14.926Z,98614.83
2018-09-30T10:14:45.773Z,98618.04
2018-09-30T10:17:15.942Z,98619.63
2018-09-30T10:19:45.832Z,98600.41
2018-09-30T10:22:15.770Z,98609.74
2018-09-30T10:24:44.967Z,98611.62
2018-09-30T10:27:13.800Z,98611.88
2018-09-30T10:29:44.373Z,98598.30
2018-09-30T10:32:14.941Z,98604.40
2018-09-30T10:34:44.949Z,98604.72
2018-09-30T10:37:16.074Z,98601.77
2018-09-30T10:39:48.696Z,98595.38
2018-09-30T10:42:20.952Z,98581.77
2018-09-30T10:44:51.777Z,98583.35
2018-09-30T10:47:23.009Z,98582.02
2018-09-30T10:49:52.970Z,98571.59
2018-09-30T10:52:23.484Z,98573.20
2018-09-30T10:54:52.986Z,98571.86
2018-09-30T10:57:22.960Z,98559.86
2018-09-30T10:59:52.814Z,98565.03
2018-09-30T11:03:09.939Z,98566.91
2018-09-30T11:05:40.938Z,98563.66
2018-09-30T11:08:10.898Z,98559.14
2018-09-30T11:10:41.918Z,98555.94
2018-09-30T11:13:13.183Z,98551.16
2018-09-30T11:15:43.873Z,98542.61
2018-09-30T11:18:16.616Z,98544.22
2018-09-30T11:20:44.973Z,98526.30
2018-09-30T11:23:15.966Z,98524.92
2018-09-30T11:25:46.929Z,98521.67
2018-09-30T11:28:17.204Z,98526.17
2018-09-30T11:30:46.858Z,98524.56
2018-09-30T11:33:15.797Z,98521.09
2018-09-30T11:35:44.041Z,98518.41
2018-09-30T11:38:13.803Z,98519.72
2018-09-30T11:40:44.897Z,98516.50
2018-09-30T11:43:14.774Z,98514.36
2018-09-30T11:45:44.785Z,98508.47
2018-09-30T11:48:14.930Z,98493.80
2018-09-30T11:50:45.970Z,98502.55
2018-09-30T11:53:17.043Z,98494.28
2018-09-30T11:57:47.949Z,98480.67
2018-09-30T12:00:18.954Z,98489.20
2018-09-30T12:02:48.942Z,98478.52
2018-09-30T12:05:18.945Z,98474.22
2018-09-30T12:07:48.698Z,98471.28
2018-09-30T12:10:17.938Z,98467.80
2018-09-30T12:12:47.993Z,98457.12
2018-09-30T12:15:17.958Z,98452.05
2018-09-30T12:17:47.933Z,98439.22
2018-09-30T12:20:18.525Z,98444.29
2018-09-30T12:22:47.852Z,98443.20
2018-09-30T12:25:17.805Z,98435.42
2018-09-30T12:27:47.609Z,98423.70
2018-09-30T12:30:16.941Z,98429.80
2018-09-30T12:32:46.621Z,98427.66
2018-09-30T12:35:15.958Z,98422.61
2018-09-30T12:37:46.561Z,98412.95
2018-09-30T12:40:15.962Z,98414.30
2018-09-30T12:42:46.837Z,98407.86
2018-09-30T12:45:15.937Z,98408.14
2018-09-30T12:47:45.862Z,98407.34
2018-09-30T12:50:16.913Z,98399.56
2018-09-30T12:52:48.601Z,98402.25
2018-09-30T12:55:17.962Z,98395.56
2018-09-30T12:57:47.952Z,98399.02
2018-09-30T13:00:17.979Z,98395.81
2018-09-30T13:02:48.989Z,98396.06
2018-09-30T13:05:19.066Z,98384.59
2018-09-30T13:07:48.214Z,98387.23
2018-09-30T13:10:18.939Z,98370.73
2018-09-30T13:12:50.934Z,98384.81
2018-09-30T13:15:19.937Z,98375.99
2018-09-30T13:17:51.209Z,98377.89
2018-09-30T13:20:21.945Z,98373.04
2018-09-30T13:22:52.000Z,98373.04
2018-09-30T13:25:21.961Z,98367.45
2018-09-30T13:27:51.977Z,98359.17
2018-09-30T13:30:21.977Z,98353.02
2018-09-30T13:32:51.945Z,98362.87
2018-09-30T13:35:21.895Z,98360.20
2018-09-30T13:37:52.373Z,98354.30
2018-09-30T13:40:22.631Z,98350.04
2018-09-30T13:42:52.054Z,98316.83
2018-09-30T13:45:22.010Z,98342.80
2018-09-30T13:47:50.777Z,98337.73
2018-09-30T13:50:21.921Z,98336.68
2018-09-30T13:52:51.868Z,98334.25
2018-09-30T13:55:20.676Z,98335.59
2018-09-30T13:57:49.896Z,98329.16
2018-09-30T14:00:20.511Z,98328.91
2018-09-30T14:02:50.625Z,98323.81
2018-09-30T14:05:22.685Z,98307.84
2018-09-30T14:07:53.962Z,98314.17
2018-09-30T14:10:23.878Z,98311.50
2018-09-30T14:12:55.079Z,98308.05
2018-09-30T14:15:24.484Z,98306.96
2018-09-30T14:17:53.997Z,98305.09
2018-09-30T14:20:23.922Z,98300.24
2018-09-30T14:22:53.927Z,98294.93
2018-09-30T14:25:23.861Z,98291.98
2018-09-30T14:27:53.889Z,98295.73
2018-09-30T14:30:22.946Z,98291.45
2018-09-30T14:32:51.704Z,98295.17
2018-09-30T14:35:21.002Z,98289.30
2018-09-30T14:37:50.929Z,98273.06
2018-09-30T14:40:19.910Z,98289.55
2018-09-30T14:42:50.040Z,98288.73
2018-09-30T14:45:20.066Z,98275.70
2018-09-30T14:47:49.852Z,98287.41
2018-09-30T14:50:18.876Z,98288.21
2018-09-30T14:52:47.893Z,98286.06
2018-09-30T14:55:17.205Z,98282.05
2018-09-30T14:57:46.853Z,98279.63
2018-09-30T15:00:16.666Z,98282.30
2018-09-30T15:02:45.947Z,98273.51
2018-09-30T15:05:14.828Z,98278.30
2018-09-30T15:07:44.448Z,98273.75
2018-09-30T15:10:17.985Z,98272.66
2018-09-30T15:12:46.988Z,98266.79
2018-09-30T15:15:15.717Z,98261.48
2018-09-30T15:17:46.394Z,98247.35
2018-09-30T15:20:15.702Z,98248.44
2018-09-30T15:22:44.933Z,98262.78
2018-09-30T15:25:13.773Z,98262.25
2018-09-30T15:27:42.876Z,98252.38
2018-09-30T15:30:11.805Z,98252.09
2018-09-30T15:32:41.057Z,98245.65
2018-09-30T15:35:10.654Z,98246.73
2018-09-30T15:37:39.780Z,98251.00
2018-09-30T15:40:09.610Z,98245.41
2018-09-30T15:42:40.524Z,98241.39
2018-09-30T15:45:09.802Z,98244.34
2018-09-30T15:47:38.189Z,98243.54
2018-09-30T15:50:07.949Z,98244.59
2018-09-30T15:52:37.662Z,98242.98
2018-09-30T15:55:06.817Z,98242.73
2018-09-30T15:57:35.701Z,98243.02
2018-09-30T16:00:05.765Z,98245.16
2018-09-30T16:02:36.041Z,98252.09
2018-09-30T16:05:05.511Z,98252.09
2018-09-30T16:07:34.198Z,98243.26
2018-09-30T16:10:03.646Z,98244.59
2018-09-30T16:12:32.859Z,98243.54
2018-09-30T16:15:02.846Z,98234.95
2018-09-30T16:17:32.881Z,98234.19
2018-09-30T16:20:02.722Z,98225.39
2018-09-30T16:22:32.945Z,98232.56
2018-09-30T16:25:04.534Z,98223.20
2018-09-30T16:27:34.878Z,98221.34
2018-09-30T16:30:04.881Z,98225.39
2018-09-30T16:32:36.776Z,98223.49
2018-09-30T16:35:06.044Z,98227.50
2018-09-30T16:37:35.038Z,98218.19
2018-09-30T16:40:05.024Z,98228.03
2018-09-30T16:42:35.348Z,98214.75
2018-09-30T16:45:04.650Z,98221.91
2018-09-30T16:47:33.641Z,98224.83
2018-09-30T16:50:02.785Z,98225.92
2018-09-30T16:52:32.000Z,98226.44
2018-09-30T16:55:00.133Z,98222.68
2018-09-30T16:57:29.749Z,98222.16
2018-09-30T16:59:59.215Z,98223.49
2018-09-30T17:04:09.606Z,98225.11
2018-09-30T17:06:38.881Z,98227.50
2018-09-30T17:09:08.890Z,98225.59
2018-09-30T17:11:38.575Z,98213.37
2018-09-30T17:14:07.781Z,98221.66
2018-09-30T17:17:04.802Z,98225.03
2018-09-30T17:19:34.709Z,98229.33
2018-09-30T17:22:03.845Z,98236.01
2018-09-30T17:24:32.954Z,98230.70
2018-09-30T17:27:02.737Z,98236.82
2018-09-30T17:29:32.713Z,98237.14
2018-09-30T17:32:01.822Z,98226.94
2018-09-30T17:34:30.645Z,98237.62
2018-09-30T17:36:59.774Z,98227.26
2018-09-30T17:39:29.069Z,98230.95
2018-09-30T17:43:07.691Z,98230.27
2018-09-30T17:45:39.040Z,98232.92
2018-09-30T17:48:10.605Z,98229.93
2018-09-30T17:50:39.550Z,98235.52
2018-09-30T17:53:08.968Z,98215.31
2018-09-30T17:55:38.742Z,98233.37
2018-09-30T17:58:08.098Z,98227.47
2018-09-30T18:00:38.019Z,98233.37
2018-09-30T18:07:27.914Z,98235.20
2018-09-30T18:09:55.953Z,98239.16
2018-09-30T18:12:26.807Z,98236.49
2018-09-30T18:14:56.195Z,98225.67
2018-09-30T18:20:03.865Z,98237.87
2018-09-30T18:22:32.883Z,98242.16
2018-09-30T18:27:46.960Z,98243.50
2018-09-30T18:30:15.936Z,98235.59
2018-09-30T18:32:47.769Z,98243.81
2018-09-30T18:35:16.605Z,98244.55
2018-09-30T18:37:44.804Z,98244.44
2018-09-30T18:41:37.195Z,98239.48
2018-09-30T18:44:06.830Z,98231.41
2018-09-30T18:46:36.086Z,98226.79
2018-09-30T18:49:05.801Z,98232.09
2018-09-30T18:51:34.523Z,98229.61
2018-09-30T18:54:04.029Z,98216.29
2018-09-30T18:56:33.062Z,98212.98
2018-09-30T18:59:19.556Z,98218.86
2018-09-30T19:01:49.525Z,98219.58
2018-09-30T19:04:18.779Z,98219.38
2018-09-30T19:09:35.534Z,98207.81
2018-09-30T19:12:04.955Z,98223.83
2018-09-30T19:14:34.788Z,98222.97
2018-09-30T19:18:28.934Z,98219.05
2018-09-30T19:20:58.794Z,98224.11
2018-09-30T19:23:28.174Z,98222.58
2018-09-30T19:25:58.121Z,98222.34
2018-09-30T19:28:26.050Z,98225.46
2018-09-30T19:30:56.060Z,98224.93
2018-09-30T19:33:25.615Z,98226.55
2018-09-30T19:35:57.640Z,98216.18
2018-09-30T19:38:28.503Z,98212.74
2018-09-30T19:40:57.616Z,98204.61
2018-09-30T19:43:29.294Z,98221.34
2018-09-30T19:45:59.617Z,98211.73
2018-09-30T19:48:31.468Z,98219.42
2018-09-30T19:51:00.577Z,98215.17
2018-09-30T19:53:28.985Z,98216.07
2018-09-30T19:55:58.821Z,98220.08
2018-09-30T19:58:28.042Z,98218.42
2018-09-30T20:00:57.987Z,98217.37
2018-09-30T20:03:27.045Z,98215.27
2018-09-30T20:05:56.193Z,98211.30
2018-09-30T20:08:25.809Z,98212.34
2018-09-30T20:10:55.831Z,98210.44
2018-09-30T20:13:25.821Z,98212.55
2018-09-30T20:15:54.958Z,98209.87
2018-09-30T20:18:23.769Z,98203.47
2018-09-30T20:20:52.076Z,98211.20
2018-09-30T20:23:21.808Z,98199.45
2018-09-30T20:27:55.814Z,98201.28
2018-09-30T20:30:24.833Z,98200.46
2018-09-30T20:32:54.623Z,98202.81
2018-09-30T20:35:24.920Z,98211.69
2018-09-30T20:37:54.819Z,98214.73
2018-09-30T20:40:23.917Z,98211.78
2018-09-30T20:42:54.694Z,98206.88
2018-09-30T20:45:25.742Z,98204.91
2018-09-30T20:47:55.810Z,98201.66
2018-09-30T20:50:25.200Z,98202.16
2018-09-30T20:53:14.915Z,98196.36
2018-09-30T20:58:24.882Z,98202.02
2018-09-30T21:00:54.625Z,98203.34
2018-09-30T21:03:24.194Z,98199.34
2018-09-30T21:06:33.576Z,98195.98
2018-09-30T21:09:03.766Z,98193.69
2018-09-30T21:11:33.164Z,98193.73
2018-09-30T21:14:03.735Z,98201.47
2018-09-30T21:16:34.921Z,98198.23
2018-09-30T21:19:04.621Z,98198.28
2018-09-30T21:21:35.452Z,98185.89
2018-09-30T21:24:04.813Z,98197.02
2018-09-30T21:26:33.957Z,98191.67
2018-09-30T21:29:03.190Z,98189.77
2018-09-30T21:31:32.807Z,98192.25
2018-09-30T21:34:03.547Z,98193.91
2018-09-30T21:36:32.849Z,98188.56
2018-09-30T21:39:01.845Z,98182.94
2018-09-30T21:41:31.958Z,98185.16
2018-09-30T21:44:01.870Z,98179.98
2018-09-30T21:46:31.834Z,98178.77
2018-09-30T21:49:20.585Z,98158.56
2018-09-30T21:51:50.870Z,98173.42
2018-09-30T21:54:20.830Z,98158.56
2018-09-30T21:56:50.652Z,98151.40
2018-09-30T21:59:19.918Z,98165.13
2018-09-30T22:01:49.875Z,98160.34
2018-09-30T22:04:19.781Z,98160.87
2018-09-30T22:06:48.650Z,98163.22
2018-09-30T22:09:18.195Z,98154.19
2018-09-30T22:11:46.900Z,98156.33
2018-09-30T22:14:17.829Z,98154.19
2018-09-30T22:16:47.945Z,98154.76
2018-09-30T22:19:17.696Z,98161.40
2018-09-30T22:21:46.994Z,98157.63
2018-09-30T22:24:16.790Z,98161.92
2018-09-30T22:26:46.739Z,98162.20
2018-09-30T22:29:15.910Z,98152.08
2018-09-30T22:31:45.919Z,98150.22
2018-09-30T22:34:15.905Z,98154.70
2018-09-30T22:36:45.461Z,98138.96
2018-09-30T22:39:15.547Z,98145.92
2018-09-30T22:41:45.005Z,98137.91
2018-09-30T22:44:14.765Z,98140.30
2018-09-30T22:46:44.957Z,98136.38
2018-09-30T22:49:13.994Z,98137.62
2018-09-30T22:51:42.921Z,98136.61
2018-09-30T22:54:13.217Z,98140.34
2018-09-30T22:56:43.022Z,98143.58
2018-09-30T22:59:12.623Z,98139.56
2018-09-30T23:01:42.665Z,98134.75
2018-09-30T23:04:11.821Z,98142.77
2018-09-30T23:06:41.635Z,98140.00
2018-09-30T23:09:10.914Z,98138.96
2018-09-30T23:11:40.937Z,98133.70
2018-09-30T23:14:10.921Z,98130.45
2018-09-30T23:16:39.872Z,98128.11
2018-09-30T23:19:09.782Z,98122.19
2018-09-30T23:21:39.873Z,98122.48
2018-09-30T23:24:09.642Z,98112.91
2018-09-30T23:26:38.857Z,98128.59
2018-09-30T23:29:08.299Z,98124.59
2018-09-30T23:31:37.806Z,98124.95
2018-09-30T23:34:07.587Z,98122.77
2018-09-30T23:36:36.922Z,98130.20
2018-09-30T23:40:18.942Z,98141.43
2018-09-30T23:42:49.048Z,98151.76
2018-09-30T23:45:18.923Z,98142.05
2018-09-30T23:47:48.839Z,98158.52
2018-09-30T23:50:18.807Z,98164.72
2018-09-30T23:52:48.051Z,98161.00
2018-09-30T23:55:18.001Z,98168.45
